sensor_id;sensor_type;location;lat;lon;timestamp;pressure;altitude;pressure_sealevel;temperature;humidity
12757;BME280;31601;48.042;12.240;2023-03-23T00:01:22;95743.75;;;9.48;66.14
12757;BME280;31601;48.042;12.240;2023-03-23T00:03:51;95745.09;;;9.44;65.94
12757;BME280;31601;48.042;12.240;2023-03-23T00:06:19;95753.72;;;9.38;66.36
12757;BME280;31601;48.042;12.240;2023-03-23T00:08:49;95758.59;;;9.05;66.50
12757;BME280;31601;48.042;12.240;2023-03-23T00:11:23;95767.22;;;9.20;65.80
12757;BME280;31601;48.042;12.240;2023-03-23T00:13:52;95765.91;;;9.09;66.82
12757;BME280;31601;48.042;12.240;2023-03-23T00:16:20;95758.38;;;9.43;66.15
12757;BME280;31601;48.042;12.240;2023-03-23T00:18:57;95752.56;;;9.47;65.61
12757;BME280;31601;48.042;12.240;2023-03-23T00:21:25;95754.63;;;9.52;65.26
12757;BME280;31601;48.042;12.240;2023-03-23T00:24:00;95753.63;;;9.53;65.52
12757;BME280;31601;48.042;12.240;2023-03-23T00:26:27;95751.03;;;9.53;65.12
12757;BME280;31601;48.042;12.240;2023-03-23T00:28:55;95738.13;;;9.52;65.14
12757;BME280;31601;48.042;12.240;2023-03-23T00:31:21;95742.53;;;9.51;65.23
12757;BME280;31601;48.042;12.240;2023-03-23T00:33:48;95742.53;;;9.51;64.99
12757;BME280;31601;48.042;12.240;2023-03-23T00:36:14;95741.50;;;9.45;64.98
12757;BME280;31601;48.042;12.240;2023-03-23T00:38:42;95747.91;;;9.43;64.83
12757;BME280;31601;48.042;12.240;2023-03-23T00:41:10;95745.47;;;9.41;64.82
12757;BME280;31601;48.042;12.240;2023-03-23T00:43:37;95737.81;;;9.40;64.36
12757;BME280;31601;48.042;12.240;2023-03-23T00:46:04;95734.38;;;9.39;64.79
12757;BME280;31601;48.042;12.240;2023-03-23T00:48:35;95735.19;;;9.40;65.07
12757;BME280;31601;48.042;12.240;2023-03-23T00:51:02;95740.19;;;9.35;65.41
12757;BME280;31601;48.042;12.240;2023-03-23T00:53:31;95738.81;;;9.17;65.98
12757;BME280;31601;48.042;12.240;2023-03-23T00:55:58;95747.72;;;9.01;66.43
12757;BME280;31601;48.042;12.240;2023-03-23T00:58:26;95745.09;;;9.01;66.39
12757;BME280;31601;48.042;12.240;2023-03-23T01:00:52;95744.97;;;9.09;66.23
12757;BME280;31601;48.042;12.240;2023-03-23T01:03:19;95744.22;;;9.16;66.06
12757;BME280;31601;48.042;12.240;2023-03-23T01:05:46;95737.81;;;9.18;65.66
12757;BME280;31601;48.042;12.240;2023-03-23T01:08:13;95744.50;;;9.21;65.65
12757;BME280;31601;48.042;12.240;2023-03-23T01:10:41;95741.88;;;9.21;65.54
12757;BME280;31601;48.042;12.240;2023-03-23T01:13:07;95741.03;;;9.20;65.42
12757;BME280;31601;48.042;12.240;2023-03-23T01:15:35;95734.97;;;9.13;65.49
12757;BME280;31601;48.042;12.240;2023-03-23T01:18:02;95739.44;;;9.19;65.38
12757;BME280;31601;48.042;12.240;2023-03-23T01:20:29;95733.94;;;8.92;65.80
12757;BME280;31601;48.042;12.240;2023-03-23T01:22:56;95724.78;;;9.03;65.50
12757;BME280;31601;48.042;12.240;2023-03-23T01:25:26;95728.69;;;8.92;66.36
12757;BME280;31601;48.042;12.240;2023-03-23T01:27:53;95721.56;;;9.01;66.08
12757;BME280;31601;48.042;12.240;2023-03-23T01:30:19;95719.50;;;8.96;66.49
12757;BME280;31601;48.042;12.240;2023-03-23T01:32:47;95723.41;;;9.07;66.09
12757;BME280;31601;48.042;12.240;2023-03-23T01:35:14;95719.19;;;9.06;66.05
12757;BME280;31601;48.042;12.240;2023-03-23T01:37:40;95717.50;;;8.99;66.30
12757;BME280;31601;48.042;12.240;2023-03-23T01:40:08;95719.13;;;9.00;66.48
12757;BME280;31601;48.042;12.240;2023-03-23T01:42:36;95720.56;;;9.02;66.56
12757;BME280;31601;48.042;12.240;2023-03-23T01:45:25;95708.34;;;9.09;66.14
12757;BME280;31601;48.042;12.240;2023-03-23T01:47:59;95717.75;;;9.04;66.44
12757;BME280;31601;48.042;12.240;2023-03-23T01:50:28;95713.19;;;9.12;65.98
12757;BME280;31601;48.042;12.240;2023-03-23T01:52:57;95707.84;;;9.21;66.04
12757;BME280;31601;48.042;12.240;2023-03-23T01:55:27;95706.84;;;9.22;65.83
12757;BME280;31601;48.042;12.240;2023-03-23T01:57:54;95719.53;;;9.03;66.33
12757;BME280;31601;48.042;12.240;2023-03-23T02:00:21;95709.25;;;9.02;66.53
12757;BME280;31601;48.042;12.240;2023-03-23T02:02:49;95715.81;;;8.91;66.97
12757;BME280;31601;48.042;12.240;2023-03-23T02:05:24;95716.06;;;8.96;66.36
12757;BME280;31601;48.042;12.240;2023-03-23T02:07:53;95717.41;;;8.70;66.64
12757;BME280;31601;48.042;12.240;2023-03-23T02:10:20;95716.06;;;8.74;66.75
12757;BME280;31601;48.042;12.240;2023-03-23T02:12:47;95718.22;;;8.71;67.38
12757;BME280;31601;48.042;12.240;2023-03-23T02:15:13;95723.19;;;8.66;67.78
12757;BME280;31601;48.042;12.240;2023-03-23T02:17:43;95725.75;;;8.59;67.56
12757;BME280;31601;48.042;12.240;2023-03-23T02:20:30;95720.97;;;8.48;68.08
12757;BME280;31601;48.042;12.240;2023-03-23T02:23:18;95721.59;;;8.35;67.62
12757;BME280;31601;48.042;12.240;2023-03-23T02:26:00;95717.53;;;8.47;67.53
12757;BME280;31601;48.042;12.240;2023-03-23T02:28:52;95717.63;;;8.54;67.77
12757;BME280;31601;48.042;12.240;2023-03-23T02:31:31;95714.72;;;8.64;67.42
12757;BME280;31601;48.042;12.240;2023-03-23T02:34:09;95721.84;;;8.55;67.95
12757;BME280;31601;48.042;12.240;2023-03-23T02:36:39;95718.50;;;8.61;67.63
12757;BME280;31601;48.042;12.240;2023-03-23T02:39:13;95721.84;;;8.70;67.61
12757;BME280;31601;48.042;12.240;2023-03-23T02:41:49;95713.69;;;8.80;67.00
12757;BME280;31601;48.042;12.240;2023-03-23T02:44:19;95713.31;;;8.83;67.08
12757;BME280;31601;48.042;12.240;2023-03-23T02:46:46;95712.69;;;8.81;66.82
12757;BME280;31601;48.042;12.240;2023-03-23T02:49:15;95718.91;;;8.80;66.92
12757;BME280;31601;48.042;12.240;2023-03-23T02:51:46;95711.19;;;8.71;67.01
12757;BME280;31601;48.042;12.240;2023-03-23T02:54:14;95714.13;;;8.83;67.44
12757;BME280;31601;48.042;12.240;2023-03-23T02:56:43;95718.91;;;8.80;67.41
12757;BME280;31601;48.042;12.240;2023-03-23T02:59:09;95717.00;;;8.88;67.51
12757;BME280;31601;48.042;12.240;2023-03-23T03:02:01;95717.00;;;8.88;67.53
12757;BME280;31601;48.042;12.240;2023-03-23T03:04:31;95711.03;;;8.94;67.51
12757;BME280;31601;48.042;12.240;2023-03-23T03:09:56;95710.28;;;9.01;67.46
12757;BME280;31601;48.042;12.240;2023-03-23T03:12:31;95702.63;;;8.99;67.61
12757;BME280;31601;48.042;12.240;2023-03-23T03:15:08;95701.03;;;9.05;67.16
12757;BME280;31601;48.042;12.240;2023-03-23T03:17:41;95698.00;;;9.01;67.33
12757;BME280;31601;48.042;12.240;2023-03-23T03:20:12;95711.47;;;8.98;67.39
12757;BME280;31601;48.042;12.240;2023-03-23T03:22:41;95717.50;;;8.99;67.17
12757;BME280;31601;48.042;12.240;2023-03-23T03:25:10;95715.16;;;9.04;66.81
12757;BME280;31601;48.042;12.240;2023-03-23T03:27:39;95721.56;;;9.01;67.10
12757;BME280;31601;48.042;12.240;2023-03-23T03:30:09;95721.78;;;9.06;66.80
12757;BME280;31601;48.042;12.240;2023-03-23T03:32:41;95725.97;;;9.01;66.83
12757;BME280;31601;48.042;12.240;2023-03-23T03:35:13;95718.31;;;8.99;66.66
12757;BME280;31601;48.042;12.240;2023-03-23T03:37:39;95719.44;;;8.90;66.62
12757;BME280;31601;48.042;12.240;2023-03-23T03:40:08;95716.00;;;8.89;66.46
12757;BME280;31601;48.042;12.240;2023-03-23T03:42:37;95714.13;;;8.83;66.77
12757;BME280;31601;48.042;12.240;2023-03-23T03:45:05;95710.88;;;8.81;66.60
12757;BME280;31601;48.042;12.240;2023-03-23T03:47:32;95701.09;;;8.68;67.31
12757;BME280;31601;48.042;12.240;2023-03-23T03:49:59;95710.28;;;8.64;67.48
12757;BME280;31601;48.042;12.240;2023-03-23T03:52:26;95705.06;;;8.64;67.33
12757;BME280;31601;48.042;12.240;2023-03-23T03:54:54;95709.31;;;8.65;67.71
12757;BME280;31601;48.042;12.240;2023-03-23T03:57:21;95712.53;;;8.67;67.70
12757;BME280;31601;48.042;12.240;2023-03-23T03:59:47;95727.16;;;8.62;67.64
12757;BME280;31601;48.042;12.240;2023-03-23T04:02:14;95725.88;;;8.72;67.55
12757;BME280;31601;48.042;12.240;2023-03-23T04:04:45;95725.06;;;8.72;67.48
12757;BME280;31601;48.042;12.240;2023-03-23T04:07:11;95731.03;;;8.66;67.32
12757;BME280;31601;48.042;12.240;2023-03-23T04:09:40;95734.81;;;8.63;67.20
12757;BME280;31601;48.042;12.240;2023-03-23T04:12:06;95732.38;;;8.62;66.92
12757;BME280;31601;48.042;12.240;2023-03-23T04:14:34;95735.38;;;8.58;67.20
12757;BME280;31601;48.042;12.240;2023-03-23T04:17:00;95731.50;;;8.54;67.29
12757;BME280;31601;48.042;12.240;2023-03-23T04:19:27;95725.81;;;8.51;67.29
12757;BME280;31601;48.042;12.240;2023-03-23T04:21:58;95726.28;;;8.39;67.29
12757;BME280;31601;48.042;12.240;2023-03-23T04:24:25;95721.41;;;8.36;67.68
12757;BME280;31601;48.042;12.240;2023-03-23T04:26:54;95734.13;;;8.39;68.04
12757;BME280;31601;48.042;12.240;2023-03-23T04:29:21;95740.97;;;8.40;68.32
12757;BME280;31601;48.042;12.240;2023-03-23T04:31:47;95741.16;;;8.39;68.08
12757;BME280;31601;48.042;12.240;2023-03-23T04:34:16;95745.88;;;8.44;68.24
12757;BME280;31601;48.042;12.240;2023-03-23T04:36:43;95736.72;;;8.39;68.10
12757;BME280;31601;48.042;12.240;2023-03-23T04:39:09;95737.88;;;8.37;68.08
12757;BME280;31601;48.042;12.240;2023-03-23T04:41:37;95747.53;;;8.36;68.32
12757;BME280;31601;48.042;12.240;2023-03-23T04:44:05;95744.94;;;8.36;68.04
12757;BME280;31601;48.042;12.240;2023-03-23T04:46:32;95741.41;;;8.29;68.07
12757;BME280;31601;48.042;12.240;2023-03-23T04:48:59;95747.47;;;8.30;68.00
12757;BME280;31601;48.042;12.240;2023-03-23T04:51:26;95746.38;;;8.24;67.99
12757;BME280;31601;48.042;12.240;2023-03-23T04:53:53;95748.09;;;8.17;68.21
12757;BME280;31601;48.042;12.240;2023-03-23T04:56:20;95748.72;;;8.04;68.47
12757;BME280;31601;48.042;12.240;2023-03-23T04:58:46;95747.63;;;7.98;68.74
12757;BME280;31601;48.042;12.240;2023-03-23T05:01:14;95752.97;;;8.05;68.67
12757;BME280;31601;48.042;12.240;2023-03-23T05:03:43;95740.44;;;8.00;68.90
12757;BME280;31601;48.042;12.240;2023-03-23T05:06:10;95746.53;;;7.78;69.26
12757;BME280;31601;48.042;12.240;2023-03-23T05:08:36;95741.84;;;7.73;69.64
12757;BME280;31601;48.042;12.240;2023-03-23T05:11:05;95754.41;;;7.55;69.64
12757;BME280;31601;48.042;12.240;2023-03-23T05:13:32;95753.56;;;7.39;70.10
12757;BME280;31601;48.042;12.240;2023-03-23T05:16:03;95754.00;;;7.43;69.65
12757;BME280;31601;48.042;12.240;2023-03-23T05:18:32;95758.84;;;7.54;69.13
12757;BME280;31601;48.042;12.240;2023-03-23T05:20:59;95759.19;;;7.66;68.81
12757;BME280;31601;48.042;12.240;2023-03-23T05:23:26;95759.31;;;7.73;69.06
12757;BME280;31601;48.042;12.240;2023-03-23T05:25:53;95757.06;;;7.69;69.17
12757;BME280;31601;48.042;12.240;2023-03-23T05:28:20;95761.75;;;7.74;69.14
12757;BME280;31601;48.042;12.240;2023-03-23T05:30:47;95764.81;;;7.78;69.30
12757;BME280;31601;48.042;12.240;2023-03-23T05:33:14;95766.00;;;7.90;68.74
12757;BME280;31601;48.042;12.240;2023-03-23T05:35:42;95764.94;;;7.99;68.61
12757;BME280;31601;48.042;12.240;2023-03-23T05:38:08;95755.94;;;8.02;68.36
12757;BME280;31601;48.042;12.240;2023-03-23T05:40:34;95761.06;;;8.10;68.09
12757;BME280;31601;48.042;12.240;2023-03-23T05:43:01;95772.69;;;8.22;68.47
12757;BME280;31601;48.042;12.240;2023-03-23T05:45:27;95764.56;;;8.32;68.37
12757;BME280;31601;48.042;12.240;2023-03-23T05:47:54;95770.81;;;8.31;68.36
12757;BME280;31601;48.042;12.240;2023-03-23T05:50:21;95772.97;;;8.42;68.23
12757;BME280;31601;48.042;12.240;2023-03-23T05:52:49;95772.16;;;8.57;68.08
12757;BME280;31601;48.042;12.240;2023-03-23T05:55:16;95773.69;;;8.66;68.16
12757;BME280;31601;48.042;12.240;2023-03-23T05:57:43;95775.66;;;8.79;67.88
12757;BME280;31601;48.042;12.240;2023-03-23T06:00:10;95782.31;;;8.82;67.83
12757;BME280;31601;48.042;12.240;2023-03-23T06:02:45;95788.59;;;9.02;67.22
12757;BME280;31601;48.042;12.240;2023-03-23T06:05:12;95785.13;;;9.17;67.45
12757;BME280;31601;48.042;12.240;2023-03-23T06:07:39;95785.94;;;9.39;67.03
12757;BME280;31601;48.042;12.240;2023-03-23T06:10:08;95786.38;;;9.42;66.49
12757;BME280;31601;48.042;12.240;2023-03-23T06:12:35;95796.72;;;9.50;65.78
12757;BME280;31601;48.042;12.240;2023-03-23T06:15:02;95793.22;;;9.43;66.13
12757;BME280;31601;48.042;12.240;2023-03-23T06:17:29;95794.91;;;9.29;66.41
12757;BME280;31601;48.042;12.240;2023-03-23T06:19:55;95800.69;;;9.25;65.84
12757;BME280;31601;48.042;12.240;2023-03-23T06:22:23;95804.31;;;9.24;66.16
12757;BME280;31601;48.042;12.240;2023-03-23T06:24:50;95804.56;;;9.50;65.68
12757;BME280;31601;48.042;12.240;2023-03-23T06:27:17;95807.94;;;9.44;66.35
12757;BME280;31601;48.042;12.240;2023-03-23T06:29:44;95809.25;;;9.55;66.14
12757;BME280;31601;48.042;12.240;2023-03-23T06:32:11;95806.19;;;9.52;66.25
12757;BME280;31601;48.042;12.240;2023-03-23T06:34:39;95807.63;;;9.54;66.19
12757;BME280;31601;48.042;12.240;2023-03-23T06:37:05;95813.78;;;9.46;66.21
12757;BME280;31601;48.042;12.240;2023-03-23T06:39:32;95805.47;;;9.58;66.46
12757;BME280;31601;48.042;12.240;2023-03-23T06:41:58;95803.06;;;9.84;66.27
12757;BME280;31601;48.042;12.240;2023-03-23T06:44:26;95788.84;;;10.00;66.26
12757;BME280;31601;48.042;12.240;2023-03-23T06:46:53;95788.53;;;10.10;65.79
12757;BME280;31601;48.042;12.240;2023-03-23T06:49:20;95781.41;;;10.32;65.55
12757;BME280;31601;48.042;12.240;2023-03-23T06:51:47;95773.88;;;10.57;64.99
12757;BME280;31601;48.042;12.240;2023-03-23T06:54:13;95776.38;;;10.72;64.82
12757;BME280;31601;48.042;12.240;2023-03-23T06:56:40;95761.84;;;10.77;64.55
12757;BME280;31601;48.042;12.240;2023-03-23T06:59:07;95763.69;;;10.83;64.29
12757;BME280;31601;48.042;12.240;2023-03-23T07:01:36;95755.47;;;11.06;63.71
12757;BME280;31601;48.042;12.240;2023-03-23T07:04:03;95756.75;;;11.23;63.37
12757;BME280;31601;48.042;12.240;2023-03-23T07:06:30;95757.38;;;11.45;62.95
12757;BME280;31601;48.042;12.240;2023-03-23T07:08:56;95749.91;;;11.56;62.90
12757;BME280;31601;48.042;12.240;2023-03-23T07:11:23;95749.09;;;11.82;62.29
12757;BME280;31601;48.042;12.240;2023-03-23T07:13:50;95755.78;;;11.98;61.77
12757;BME280;31601;48.042;12.240;2023-03-23T07:16:16;95753.94;;;12.18;61.32
12757;BME280;31601;48.042;12.240;2023-03-23T07:18:45;95758.75;;;12.35;60.85
12757;BME280;31601;48.042;12.240;2023-03-23T07:21:11;95756.09;;;12.42;60.29
12757;BME280;31601;48.042;12.240;2023-03-23T07:23:37;95762.56;;;12.46;59.54
12757;BME280;31601;48.042;12.240;2023-03-23T07:26:06;95758.66;;;12.62;59.37
12757;BME280;31601;48.042;12.240;2023-03-23T07:28:33;95773.03;;;12.66;58.77
12757;BME280;31601;48.042;12.240;2023-03-23T07:31:00;95765.53;;;12.69;59.08
12757;BME280;31601;48.042;12.240;2023-03-23T07:33:26;95759.41;;;12.76;58.79
12757;BME280;31601;48.042;12.240;2023-03-23T07:35:54;95755.16;;;12.81;58.57
12757;BME280;31601;48.042;12.240;2023-03-23T07:38:20;95757.16;;;12.86;58.44
12757;BME280;31601;48.042;12.240;2023-03-23T07:40:47;95759.22;;;12.77;59.34
12757;BME280;31601;48.042;12.240;2023-03-23T07:43:13;95758.53;;;12.95;58.70
12757;BME280;31601;48.042;12.240;2023-03-23T07:45:40;95762.16;;;12.94;58.71
12757;BME280;31601;48.042;12.240;2023-03-23T07:48:07;95759.66;;;13.13;58.17
12757;BME280;31601;48.042;12.240;2023-03-23T07:50:34;95755.97;;;13.20;57.93
12757;BME280;31601;48.042;12.240;2023-03-23T07:53:03;95756.94;;;13.26;57.81
12757;BME280;31601;48.042;12.240;2023-03-23T07:55:30;95756.72;;;13.34;57.64
12757;BME280;31601;48.042;12.240;2023-03-23T07:57:57;95749.50;;;13.55;57.81
12757;BME280;31601;48.042;12.240;2023-03-23T08:00:24;95749.38;;;13.68;56.65
12757;BME280;31601;48.042;12.240;2023-03-23T08:02:52;95753.88;;;14.11;55.76
12757;BME280;31601;48.042;12.240;2023-03-23T08:05:20;95748.19;;;14.33;54.13
12757;BME280;31601;48.042;12.240;2023-03-23T08:07:47;95738.97;;;14.61;53.79
12757;BME280;31601;48.042;12.240;2023-03-23T08:10:16;95736.84;;;14.88;53.32
12757;BME280;31601;48.042;12.240;2023-03-23T08:12:43;95739.81;;;14.92;52.78
12757;BME280;31601;48.042;12.240;2023-03-23T08:15:11;95750.06;;;15.18;52.38
12757;BME280;31601;48.042;12.240;2023-03-23T08:17:40;95750.19;;;15.24;51.89
12757;BME280;31601;48.042;12.240;2023-03-23T08:20:08;95754.38;;;15.43;51.19
12757;BME280;31601;48.042;12.240;2023-03-23T08:22:38;95756.81;;;15.56;50.21
12757;BME280;31601;48.042;12.240;2023-03-23T08:25:06;95752.94;;;15.71;50.28
12757;BME280;31601;48.042;12.240;2023-03-23T08:27:35;95751.59;;;15.92;49.66
12757;BME280;31601;48.042;12.240;2023-03-23T08:30:02;95747.13;;;16.04;49.80
12757;BME280;31601;48.042;12.240;2023-03-23T08:32:30;95747.44;;;16.08;49.84
12757;BME280;31601;48.042;12.240;2023-03-23T08:34:56;95742.75;;;15.98;49.88
12757;BME280;31601;48.042;12.240;2023-03-23T08:37:23;95748.03;;;15.98;49.56
12757;BME280;31601;48.042;12.240;2023-03-23T08:39:51;95752.53;;;15.98;49.92
12757;BME280;31601;48.042;12.240;2023-03-23T08:42:18;95754.00;;;15.82;50.47
12757;BME280;31601;48.042;12.240;2023-03-23T08:44:46;95740.06;;;15.74;50.05
12757;BME280;31601;48.042;12.240;2023-03-23T08:47:13;95752.94;;;15.71;50.70
12757;BME280;31601;48.042;12.240;2023-03-23T08:49:40;95750.53;;;15.69;51.10
12757;BME280;31601;48.042;12.240;2023-03-23T08:52:07;95748.72;;;15.93;50.86
12757;BME280;31601;48.042;12.240;2023-03-23T08:54:34;95751.38;;;16.17;50.31
12757;BME280;31601;48.042;12.240;2023-03-23T08:57:01;95738.00;;;16.47;50.02
12757;BME280;31601;48.042;12.240;2023-03-23T08:59:28;95745.34;;;16.57;49.54
12757;BME280;31601;48.042;12.240;2023-03-23T09:01:57;95741.50;;;16.77;49.27
12757;BME280;31601;48.042;12.240;2023-03-23T09:04:23;95738.78;;;17.00;49.09
12757;BME280;31601;48.042;12.240;2023-03-23T09:06:50;95736.81;;;17.08;48.72
12757;BME280;31601;48.042;12.240;2023-03-23T09:09:16;95732.53;;;17.35;49.03
12757;BME280;31601;48.042;12.240;2023-03-23T09:11:43;95729.25;;;17.45;48.89
12757;BME280;31601;48.042;12.240;2023-03-23T09:14:10;95732.81;;;17.51;49.18
12757;BME280;31601;48.042;12.240;2023-03-23T09:16:37;95725.25;;;17.77;49.18
12757;BME280;31601;48.042;12.240;2023-03-23T09:19:06;95719.66;;;17.90;49.34
12757;BME280;31601;48.042;12.240;2023-03-23T09:21:34;95725.84;;;18.35;48.33
12757;BME280;31601;48.042;12.240;2023-03-23T09:24:01;95727.16;;;18.32;47.13
12757;BME280;31601;48.042;12.240;2023-03-23T09:26:27;95719.28;;;18.82;46.34
12757;BME280;31601;48.042;12.240;2023-03-23T09:28:54;95725.44;;;19.09;45.93
12757;BME280;31601;48.042;12.240;2023-03-23T09:31:21;95729.00;;;19.47;45.43
12757;BME280;31601;48.042;12.240;2023-03-23T09:33:51;95733.44;;;19.69;45.44
12757;BME280;31601;48.042;12.240;2023-03-23T09:36:19;95731.16;;;19.83;45.20
12757;BME280;31601;48.042;12.240;2023-03-23T09:38:46;95720.34;;;19.95;44.12
12757;BME280;31601;48.042;12.240;2023-03-23T09:41:25;95721.28;;;19.78;43.72
12757;BME280;31601;48.042;12.240;2023-03-23T09:44:03;95733.22;;;20.08;43.51
12757;BME280;31601;48.042;12.240;2023-03-23T09:46:45;95737.56;;;20.19;44.22
12757;BME280;31601;48.042;12.240;2023-03-23T09:49:17;95736.28;;;20.32;44.69
12757;BME280;31601;48.042;12.240;2023-03-23T09:51:50;95730.19;;;20.37;44.29
12757;BME280;31601;48.042;12.240;2023-03-23T09:54:20;95732.38;;;20.45;44.22
12757;BME280;31601;48.042;12.240;2023-03-23T09:56:49;95733.44;;;20.44;43.47
12757;BME280;31601;48.042;12.240;2023-03-23T09:59:20;95728.38;;;20.48;43.10
12757;BME280;31601;48.042;12.240;2023-03-23T10:01:50;95724.94;;;20.52;42.98
12757;BME280;31601;48.042;12.240;2023-03-23T10:04:31;95727.13;;;20.61;42.72
12757;BME280;31601;48.042;12.240;2023-03-23T10:07:13;95726.81;;;20.52;42.91
12757;BME280;31601;48.042;12.240;2023-03-23T10:09:42;95720.81;;;20.77;42.11
12757;BME280;31601;48.042;12.240;2023-03-23T10:12:21;95716.53;;;20.71;43.54
12757;BME280;31601;48.042;12.240;2023-03-23T10:15:03;95718.84;;;20.57;43.92
12757;BME280;31601;48.042;12.240;2023-03-23T10:17:33;95722.41;;;19.82;44.87
12757;BME280;31601;48.042;12.240;2023-03-23T10:20:21;95725.63;;;19.30;44.99
12757;BME280;31601;48.042;12.240;2023-03-23T10:22:53;95720.59;;;19.61;44.80
12757;BME280;31601;48.042;12.240;2023-03-23T10:25:24;95727.03;;;19.65;44.89
12757;BME280;31601;48.042;12.240;2023-03-23T10:27:58;95726.84;;;19.44;44.18
12757;BME280;31601;48.042;12.240;2023-03-23T10:30:29;95729.09;;;19.58;44.09
12757;BME280;31601;48.042;12.240;2023-03-23T10:33:00;95723.63;;;18.88;44.07
12757;BME280;31601;48.042;12.240;2023-03-23T10:35:32;95728.19;;;19.20;43.56
12757;BME280;31601;48.042;12.240;2023-03-23T10:38:04;95723.38;;;19.76;43.31
12757;BME280;31601;48.042;12.240;2023-03-23T10:40:32;95721.47;;;19.99;42.36
12757;BME280;31601;48.042;12.240;2023-03-23T10:43:00;95720.78;;;20.19;41.59
12757;BME280;31601;48.042;12.240;2023-03-23T10:45:29;95726.78;;;19.99;42.92
12757;BME280;31601;48.042;12.240;2023-03-23T10:48:09;95727.28;;;19.96;42.79
12757;BME280;31601;48.042;12.240;2023-03-23T10:50:38;95730.25;;;20.04;43.14
12757;BME280;31601;48.042;12.240;2023-03-23T10:53:13;95729.81;;;20.18;42.40
12757;BME280;31601;48.042;12.240;2023-03-23T10:55:42;95725.97;;;19.98;42.22
12757;BME280;31601;48.042;12.240;2023-03-23T10:58:12;95737.19;;;20.06;42.58
12757;BME280;31601;48.042;12.240;2023-03-23T11:00:43;95745.41;;;19.39;41.23
12757;BME280;31601;48.042;12.240;2023-03-23T11:03:24;95735.81;;;19.98;40.07
12757;BME280;31601;48.042;12.240;2023-03-23T11:05:53;95741.53;;;20.17;40.08
12757;BME280;31601;48.042;12.240;2023-03-23T11:08:24;95747.41;;;19.81;41.32
12757;BME280;31601;48.042;12.240;2023-03-23T11:10:53;95743.81;;;19.98;40.71
12757;BME280;31601;48.042;12.240;2023-03-23T11:13:21;95746.16;;;20.32;41.44
12757;BME280;31601;48.042;12.240;2023-03-23T11:15:49;95758.00;;;20.56;41.63
12757;BME280;31601;48.042;12.240;2023-03-23T11:18:21;95754.44;;;20.83;41.24
12757;BME280;31601;48.042;12.240;2023-03-23T11:20:51;95757.69;;;20.43;42.11
12757;BME280;31601;48.042;12.240;2023-03-23T11:23:21;95752.22;;;20.22;41.50
12757;BME280;31601;48.042;12.240;2023-03-23T11:25:56;95756.19;;;20.62;41.30
12757;BME280;31601;48.042;12.240;2023-03-23T11:28:27;95755.59;;;20.55;41.05
12757;BME280;31601;48.042;12.240;2023-03-23T11:30:56;95760.09;;;20.49;41.98
12757;BME280;31601;48.042;12.240;2023-03-23T11:33:23;95756.31;;;20.88;41.82
12757;BME280;31601;48.042;12.240;2023-03-23T11:35:52;95758.03;;;21.20;40.53
12757;BME280;31601;48.042;12.240;2023-03-23T11:38:21;95764.44;;;21.29;40.25
12757;BME280;31601;48.042;12.240;2023-03-23T11:40:51;95752.38;;;21.01;39.82
12757;BME280;31601;48.042;12.240;2023-03-23T11:43:21;95752.91;;;21.13;40.02
12757;BME280;31601;48.042;12.240;2023-03-23T11:45:56;95737.97;;;21.02;38.70
12757;BME280;31601;48.042;12.240;2023-03-23T11:48:28;95730.84;;;21.43;38.74
12757;BME280;31601;48.042;12.240;2023-03-23T11:51:00;95736.91;;;21.03;39.38
12757;BME280;31601;48.042;12.240;2023-03-23T11:53:34;95745.50;;;21.41;37.61
12757;BME280;31601;48.042;12.240;2023-03-23T11:56:12;95735.38;;;21.33;37.82
12757;BME280;31601;48.042;12.240;2023-03-23T11:58:41;95732.22;;;21.56;38.74
12757;BME280;31601;48.042;12.240;2023-03-23T12:01:13;95726.88;;;21.67;38.83
12757;BME280;31601;48.042;12.240;2023-03-23T12:07:08;95714.56;;;21.24;38.11
12757;BME280;31601;48.042;12.240;2023-03-23T12:09:45;95712.38;;;21.06;39.53
12757;BME280;31601;48.042;12.240;2023-03-23T12:12:19;95715.88;;;21.22;38.93
12757;BME280;31601;48.042;12.240;2023-03-23T12:14:56;95715.56;;;20.98;38.98
12757;BME280;31601;48.042;12.240;2023-03-23T12:17:33;95711.22;;;20.76;39.15
12757;BME280;31601;48.042;12.240;2023-03-23T12:20:16;95706.34;;;20.63;39.92
12757;BME280;31601;48.042;12.240;2023-03-23T12:22:53;95712.94;;;21.23;39.12
12757;BME280;31601;48.042;12.240;2023-03-23T12:25:38;95697.34;;;20.74;39.47
12757;BME280;31601;48.042;12.240;2023-03-23T12:28:17;95692.69;;;21.27;39.58
12757;BME280;31601;48.042;12.240;2023-03-23T12:30:52;95685.78;;;21.52;38.83
12757;BME280;31601;48.042;12.240;2023-03-23T12:33:29;95688.13;;;21.28;38.40
12757;BME280;31601;48.042;12.240;2023-03-23T12:36:07;95680.13;;;21.49;38.83
12757;BME280;31601;48.042;12.240;2023-03-23T12:38:58;95693.78;;;21.73;38.58
12757;BME280;31601;48.042;12.240;2023-03-23T12:41:29;95687.66;;;21.72;38.21
12757;BME280;31601;48.042;12.240;2023-03-23T12:44:00;95689.78;;;21.91;38.63
12757;BME280;31601;48.042;12.240;2023-03-23T12:46:44;95686.00;;;22.02;38.78
12757;BME280;31601;48.042;12.240;2023-03-23T12:49:18;95686.75;;;22.39;38.07
12757;BME280;31601;48.042;12.240;2023-03-23T12:51:51;95683.56;;;22.16;38.28
12757;BME280;31601;48.042;12.240;2023-03-23T12:54:25;95685.94;;;22.43;37.85
12757;BME280;31601;48.042;12.240;2023-03-23T12:56:58;95689.97;;;22.35;36.98
12757;BME280;31601;48.042;12.240;2023-03-23T12:59:32;95680.78;;;22.62;37.04
12757;BME280;31601;48.042;12.240;2023-03-23T13:02:10;95683.97;;;22.64;36.75
12757;BME280;31601;48.042;12.240;2023-03-23T13:04:42;95672.22;;;22.65;37.05
12757;BME280;31601;48.042;12.240;2023-03-23T13:07:14;95680.69;;;22.88;37.28
12757;BME280;31601;48.042;12.240;2023-03-23T13:09:48;95681.09;;;23.05;36.92
12757;BME280;31601;48.042;12.240;2023-03-23T13:12:17;95674.63;;;23.22;36.77
12757;BME280;31601;48.042;12.240;2023-03-23T13:14:50;95666.03;;;23.25;36.01